sensor_id;sensor_type;location;lat;lon;timestamp;P1;durP1;ratioP1;P2;durP2;ratioP2
74328;SDS011;62745;51.060;13.786;2024-03-07T00:00:06;35.42;;;14.30;;
74328;SDS011;62745;51.060;13.786;2024-03-07T00:02:41;34.15;;;14.15;;
74328;SDS011;62745;51.060;13.786;2024-03-07T00:05:09;38.33;;;15.57;;
74328;SDS011;62745;51.060;13.786;2024-03-07T00:07:36;38.90;;;15.18;;
74328;SDS011;62745;51.060;13.786;2024-03-07T00:10:03;38.10;;;15.77;;
74328;SDS011;62745;51.060;13.786;2024-03-07T00:12:31;33.67;;;14.88;;
74328;SDS011;62745;51.060;13.786;2024-03-07T00:14:58;35.38;;;15.25;;
74328;SDS011;62745;51.060;13.786;2024-03-07T00:17:24;37.70;;;15.85;;
74328;SDS011;62745;51.060;13.786;2024-03-07T00:19:51;37.65;;;14.50;;
74328;SDS011;62745;51.060;13.786;2024-03-07T00:22:18;36.75;;;14.82;;
74328;SDS011;62745;51.060;13.786;2024-03-07T00:24:44;37.30;;;14.20;;
74328;SDS011;62745;51.060;13.786;2024-03-07T00:27:13;35.67;;;15.48;;
74328;SDS011;62745;51.060;13.786;2024-03-07T00:29:43;34.53;;;14.45;;
74328;SDS011;62745;51.060;13.786;2024-03-07T00:32:10;32.47;;;13.38;;
74328;SDS011;62745;51.060;13.786;2024-03-07T00:34:39;32.70;;;14.25;;
74328;SDS011;62745;51.060;13.786;2024-03-07T00:37:06;29.08;;;11.93;;
74328;SDS011;62745;51.060;13.786;2024-03-07T00:39:33;33.58;;;15.40;;
74328;SDS011;62745;51.060;13.786;2024-03-07T00:42:00;30.00;;;12.85;;
74328;SDS011;62745;51.060;13.786;2024-03-07T00:44:26;38.70;;;13.90;;
74328;SDS011;62745;51.060;13.786;2024-03-07T00:46:53;34.10;;;14.60;;
74328;SDS011;62745;51.060;13.786;2024-03-07T00:49:19;33.13;;;14.98;;
74328;SDS011;62745;51.060;13.786;2024-03-07T00:51:46;43.70;;;15.90;;
74328;SDS011;62745;51.060;13.786;2024-03-07T00:54:12;37.30;;;15.25;;
74328;SDS011;62745;51.060;13.786;2024-03-07T00:56:39;35.03;;;15.43;;
74328;SDS011;62745;51.060;13.786;2024-03-07T00:59:06;34.08;;;14.30;;
74328;SDS011;62745;51.060;13.786;2024-03-07T01:01:32;38.40;;;16.75;;
74328;SDS011;62745;51.060;13.786;2024-03-07T01:04:00;31.60;;;12.75;;
74328;SDS011;62745;51.060;13.786;2024-03-07T01:06:26;32.55;;;13.73;;
74328;SDS011;62745;51.060;13.786;2024-03-07T01:08:53;33.25;;;13.35;;
74328;SDS011;62745;51.060;13.786;2024-03-07T01:11:19;36.58;;;14.65;;
74328;SDS011;62745;51.060;13.786;2024-03-07T01:13:46;31.80;;;13.50;;
74328;SDS011;62745;51.060;13.786;2024-03-07T01:16:13;33.15;;;13.93;;
74328;SDS011;62745;51.060;13.786;2024-03-07T01:18:40;40.65;;;15.07;;
74328;SDS011;62745;51.060;13.786;2024-03-07T01:21:07;38.63;;;14.98;;
74328;SDS011;62745;51.060;13.786;2024-03-07T01:23:35;33.90;;;14.57;;
74328;SDS011;62745;51.060;13.786;2024-03-07T01:26:01;39.33;;;15.95;;
74328;SDS011;62745;51.060;13.786;2024-03-07T01:28:28;37.63;;;15.80;;
74328;SDS011;62745;51.060;13.786;2024-03-07T01:30:56;36.35;;;14.93;;
74328;SDS011;62745;51.060;13.786;2024-03-07T01:33:24;36.28;;;14.98;;
74328;SDS011;62745;51.060;13.786;2024-03-07T01:35:51;37.33;;;14.18;;
74328;SDS011;62745;51.060;13.786;2024-03-07T01:38:19;37.20;;;15.68;;
74328;SDS011;62745;51.060;13.786;2024-03-07T01:40:46;38.85;;;15.48;;
74328;SDS011;62745;51.060;13.786;2024-03-07T01:43:12;37.45;;;14.48;;
74328;SDS011;62745;51.060;13.786;2024-03-07T01:45:39;39.10;;;15.60;;
74328;SDS011;62745;51.060;13.786;2024-03-07T01:48:06;38.38;;;16.48;;
74328;SDS011;62745;51.060;13.786;2024-03-07T01:50:35;37.88;;;16.05;;
74328;SDS011;62745;51.060;13.786;2024-03-07T01:53:06;39.20;;;16.23;;
74328;SDS011;62745;51.060;13.786;2024-03-07T01:55:33;40.80;;;15.82;;
74328;SDS011;62745;51.060;13.786;2024-03-07T01:58:00;41.35;;;17.17;;
74328;SDS011;62745;51.060;13.786;2024-03-07T02:00:28;35.67;;;15.43;;
74328;SDS011;62745;51.060;13.786;2024-03-07T02:02:55;41.33;;;16.65;;
74328;SDS011;62745;51.060;13.786;2024-03-07T02:05:21;39.47;;;16.27;;
74328;SDS011;62745;51.060;13.786;2024-03-07T02:07:48;32.75;;;13.70;;
74328;SDS011;62745;51.060;13.786;2024-03-07T02:10:16;40.75;;;15.43;;
74328;SDS011;62745;51.060;13.786;2024-03-07T02:12:43;41.15;;;16.27;;
74328;SDS011;62745;51.060;13.786;2024-03-07T02:15:11;32.72;;;14.07;;
74328;SDS011;62745;51.060;13.786;2024-03-07T02:17:40;38.15;;;16.10;;
74328;SDS011;62745;51.060;13.786;2024-03-07T02:20:07;35.47;;;14.90;;
74328;SDS011;62745;51.060;13.786;2024-03-07T02:22:37;41.83;;;14.77;;
74328;SDS011;62745;51.060;13.786;2024-03-07T02:25:04;41.92;;;15.68;;
74328;SDS011;62745;51.060;13.786;2024-03-07T02:27:32;37.20;;;15.07;;
74328;SDS011;62745;51.060;13.786;2024-03-07T02:29:59;34.67;;;14.20;;
74328;SDS011;62745;51.060;13.786;2024-03-07T02:32:25;40.22;;;14.82;;
74328;SDS011;62745;51.060;13.786;2024-03-07T02:34:53;30.10;;;13.60;;
74328;SDS011;62745;51.060;13.786;2024-03-07T02:37:19;32.22;;;13.65;;
74328;SDS011;62745;51.060;13.786;2024-03-07T02:39:46;35.83;;;15.20;;
74328;SDS011;62745;51.060;13.786;2024-03-07T02:42:12;41.88;;;16.60;;
74328;SDS011;62745;51.060;13.786;2024-03-07T02:44:39;40.63;;;15.77;;
74328;SDS011;62745;51.060;13.786;2024-03-07T02:47:06;37.33;;;14.30;;
74328;SDS011;62745;51.060;13.786;2024-03-07T02:49:33;40.25;;;16.25;;
74328;SDS011;62745;51.060;13.786;2024-03-07T02:51:59;39.42;;;16.50;;
74328;SDS011;62745;51.060;13.786;2024-03-07T02:54:26;33.13;;;14.55;;
74328;SDS011;62745;51.060;13.786;2024-03-07T02:56:53;41.13;;;15.30;;
74328;SDS011;62745;51.060;13.786;2024-03-07T02:59:20;32.45;;;14.07;;
74328;SDS011;62745;51.060;13.786;2024-03-07T03:01:46;41.15;;;17.20;;
74328;SDS011;62745;51.060;13.786;2024-03-07T03:04:13;31.70;;;13.65;;
74328;SDS011;62745;51.060;13.786;2024-03-07T03:06:40;36.78;;;14.32;;
74328;SDS011;62745;51.060;13.786;2024-03-07T03:09:06;33.63;;;15.75;;
74328;SDS011;62745;51.060;13.786;2024-03-07T03:11:39;37.70;;;14.65;;
74328;SDS011;62745;51.060;13.786;2024-03-07T03:14:06;33.55;;;14.40;;
74328;SDS011;62745;51.060;13.786;2024-03-07T03:16:32;32.05;;;14.63;;
74328;SDS011;62745;51.060;13.786;2024-03-07T03:19:13;33.63;;;13.43;;
74328;SDS011;62745;51.060;13.786;2024-03-07T03:21:39;31.67;;;13.55;;
74328;SDS011;62745;51.060;13.786;2024-03-07T03:24:07;31.98;;;14.07;;
74328;SDS011;62745;51.060;13.786;2024-03-07T03:26:34;30.08;;;12.98;;
74328;SDS011;62745;51.060;13.786;2024-03-07T03:29:01;32.80;;;14.77;;
74328;SDS011;62745;51.060;13.786;2024-03-07T03:31:27;32.90;;;14.25;;
74328;SDS011;62745;51.060;13.786;2024-03-07T03:33:54;31.77;;;15.27;;
74328;SDS011;62745;51.060;13.786;2024-03-07T03:36:20;32.75;;;14.25;;
74328;SDS011;62745;51.060;13.786;2024-03-07T03:38:47;31.15;;;12.98;;
74328;SDS011;62745;51.060;13.786;2024-03-07T03:41:16;32.97;;;14.15;;
74328;SDS011;62745;51.060;13.786;2024-03-07T03:43:43;32.78;;;14.07;;
74328;SDS011;62745;51.060;13.786;2024-03-07T03:46:10;31.85;;;13.68;;
74328;SDS011;62745;51.060;13.786;2024-03-07T03:48:41;35.63;;;14.32;;
74328;SDS011;62745;51.060;13.786;2024-03-07T03:53:35;36.85;;;13.05;;
74328;SDS011;62745;51.060;13.786;2024-03-07T03:56:03;31.02;;;14.68;;
74328;SDS011;62745;51.060;13.786;2024-03-07T03:58:32;33.33;;;14.88;;
74328;SDS011;62745;51.060;13.786;2024-03-07T04:01:00;29.25;;;12.75;;
74328;SDS011;62745;51.060;13.786;2024-03-07T04:03:26;33.45;;;14.95;;
74328;SDS011;62745;51.060;13.786;2024-03-07T04:05:53;32.63;;;13.85;;
74328;SDS011;62745;51.060;13.786;2024-03-07T04:08:21;35.70;;;15.75;;
74328;SDS011;62745;51.060;13.786;2024-03-07T04:10:48;34.00;;;13.05;;
74328;SDS011;62745;51.060;13.786;2024-03-07T04:13:15;32.30;;;14.30;;
74328;SDS011;62745;51.060;13.786;2024-03-07T04:15:41;33.53;;;14.57;;
74328;SDS011;62745;51.060;13.786;2024-03-07T04:18:10;32.83;;;13.75;;
74328;SDS011;62745;51.060;13.786;2024-03-07T04:20:37;29.02;;;13.70;;
74328;SDS011;62745;51.060;13.786;2024-03-07T04:23:03;33.25;;;13.93;;
74328;SDS011;62745;51.060;13.786;2024-03-07T04:25:31;30.88;;;14.07;;
74328;SDS011;62745;51.060;13.786;2024-03-07T04:27:59;32.55;;;15.10;;
74328;SDS011;62745;51.060;13.786;2024-03-07T04:30:25;35.45;;;14.45;;
74328;SDS011;62745;51.060;13.786;2024-03-07T04:32:52;34.17;;;14.30;;
74328;SDS011;62745;51.060;13.786;2024-03-07T04:35:18;35.25;;;15.45;;
74328;SDS011;62745;51.060;13.786;2024-03-07T04:37:45;30.13;;;14.15;;
74328;SDS011;62745;51.060;13.786;2024-03-07T04:40:12;31.58;;;13.68;;
74328;SDS011;62745;51.060;13.786;2024-03-07T04:42:43;33.85;;;15.13;;
74328;SDS011;62745;51.060;13.786;2024-03-07T04:45:17;34.40;;;15.75;;
74328;SDS011;62745;51.060;13.786;2024-03-07T04:47:44;42.17;;;16.95;;
74328;SDS011;62745;51.060;13.786;2024-03-07T04:50:12;35.40;;;17.13;;
74328;SDS011;62745;51.060;13.786;2024-03-07T04:52:40;39.28;;;16.75;;
74328;SDS011;62745;51.060;13.786;2024-03-07T04:55:06;40.00;;;16.73;;
74328;SDS011;62745;51.060;13.786;2024-03-07T04:57:37;35.33;;;15.27;;
74328;SDS011;62745;51.060;13.786;2024-03-07T05:00:06;36.58;;;16.55;;
74328;SDS011;62745;51.060;13.786;2024-03-07T05:02:33;37.25;;;15.68;;
74328;SDS011;62745;51.060;13.786;2024-03-07T05:05:00;30.77;;;15.10;;
74328;SDS011;62745;51.060;13.786;2024-03-07T05:07:26;31.63;;;14.73;;
74328;SDS011;62745;51.060;13.786;2024-03-07T05:09:53;35.90;;;15.88;;
74328;SDS011;62745;51.060;13.786;2024-03-07T05:12:19;32.50;;;14.18;;
74328;SDS011;62745;51.060;13.786;2024-03-07T05:14:46;33.22;;;15.30;;
74328;SDS011;62745;51.060;13.786;2024-03-07T05:17:12;34.95;;;15.77;;
74328;SDS011;62745;51.060;13.786;2024-03-07T05:19:39;27.35;;;13.88;;
74328;SDS011;62745;51.060;13.786;2024-03-07T05:22:06;32.08;;;14.73;;
74328;SDS011;62745;51.060;13.786;2024-03-07T05:24:33;33.65;;;13.82;;
74328;SDS011;62745;51.060;13.786;2024-03-07T05:27:03;36.08;;;15.98;;
74328;SDS011;62745;51.060;13.786;2024-03-07T05:29:29;32.60;;;14.93;;
74328;SDS011;62745;51.060;13.786;2024-03-07T05:32:17;36.05;;;14.93;;
74328;SDS011;62745;51.060;13.786;2024-03-07T05:34:52;32.95;;;12.88;;
74328;SDS011;62745;51.060;13.786;2024-03-07T05:37:22;29.85;;;13.95;;
74328;SDS011;62745;51.060;13.786;2024-03-07T05:39:50;33.08;;;15.45;;
74328;SDS011;62745;51.060;13.786;2024-03-07T05:42:17;32.65;;;14.27;;
74328;SDS011;62745;51.060;13.786;2024-03-07T05:44:44;32.53;;;14.50;;
74328;SDS011;62745;51.060;13.786;2024-03-07T05:47:11;34.08;;;14.18;;
74328;SDS011;62745;51.060;13.786;2024-03-07T05:49:42;34.80;;;15.38;;
74328;SDS011;62745;51.060;13.786;2024-03-07T05:52:09;32.67;;;13.52;;
74328;SDS011;62745;51.060;13.786;2024-03-07T05:54:36;32.40;;;13.98;;
74328;SDS011;62745;51.060;13.786;2024-03-07T05:57:02;30.42;;;14.57;;
74328;SDS011;62745;51.060;13.786;2024-03-07T05:59:29;30.65;;;14.85;;
74328;SDS011;62745;51.060;13.786;2024-03-07T06:01:57;30.70;;;13.52;;
74328;SDS011;62745;51.060;13.786;2024-03-07T06:04:23;35.85;;;15.48;;
74328;SDS011;62745;51.060;13.786;2024-03-07T06:06:50;31.95;;;15.18;;
74328;SDS011;62745;51.060;13.786;2024-03-07T06:09:17;34.90;;;15.50;;
74328;SDS011;62745;51.060;13.786;2024-03-07T06:11:48;28.65;;;14.32;;
74328;SDS011;62745;51.060;13.786;2024-03-07T06:14:15;32.03;;;14.00;;
74328;SDS011;62745;51.060;13.786;2024-03-07T06:16:43;28.48;;;14.00;;
74328;SDS011;62745;51.060;13.786;2024-03-07T06:19:10;29.17;;;14.13;;
74328;SDS011;62745;51.060;13.786;2024-03-07T06:21:38;30.00;;;13.98;;
74328;SDS011;62745;51.060;13.786;2024-03-07T06:24:05;27.42;;;12.98;;
74328;SDS011;62745;51.060;13.786;2024-03-07T06:26:34;33.45;;;13.63;;
74328;SDS011;62745;51.060;13.786;2024-03-07T06:29:13;24.88;;;11.65;;
74328;SDS011;62745;51.060;13.786;2024-03-07T06:31:42;29.00;;;13.30;;
74328;SDS011;62745;51.060;13.786;2024-03-07T06:34:09;34.80;;;14.65;;
74328;SDS011;62745;51.060;13.786;2024-03-07T06:36:35;27.65;;;13.52;;
74328;SDS011;62745;51.060;13.786;2024-03-07T06:39:02;28.67;;;13.38;;
74328;SDS011;62745;51.060;13.786;2024-03-07T06:41:32;28.95;;;13.85;;
74328;SDS011;62745;51.060;13.786;2024-03-07T06:43:59;28.50;;;13.07;;
74328;SDS011;62745;51.060;13.786;2024-03-07T06:46:26;27.25;;;13.05;;
74328;SDS011;62745;51.060;13.786;2024-03-07T06:48:53;29.77;;;13.77;;
74328;SDS011;62745;51.060;13.786;2024-03-07T06:51:19;29.55;;;13.63;;
74328;SDS011;62745;51.060;13.786;2024-03-07T06:53:46;30.30;;;13.75;;
74328;SDS011;62745;51.060;13.786;2024-03-07T06:56:13;30.52;;;13.93;;
74328;SDS011;62745;51.060;13.786;2024-03-07T06:58:40;29.52;;;14.68;;
74328;SDS011;62745;51.060;13.786;2024-03-07T07:01:07;30.52;;;14.55;;
74328;SDS011;62745;51.060;13.786;2024-03-07T07:03:36;27.02;;;12.90;;
74328;SDS011;62745;51.060;13.786;2024-03-07T07:06:03;28.20;;;14.15;;
74328;SDS011;62745;51.060;13.786;2024-03-07T07:08:33;29.02;;;13.85;;
74328;SDS011;62745;51.060;13.786;2024-03-07T07:11:00;27.48;;;13.70;;
74328;SDS011;62745;51.060;13.786;2024-03-07T07:13:26;29.77;;;14.73;;
74328;SDS011;62745;51.060;13.786;2024-03-07T07:15:53;28.55;;;12.80;;
74328;SDS011;62745;51.060;13.786;2024-03-07T07:18:19;27.63;;;12.98;;
74328;SDS011;62745;51.060;13.786;2024-03-07T07:20:47;22.48;;;11.65;;
74328;SDS011;62745;51.060;13.786;2024-03-07T07:23:15;27.23;;;13.35;;
74328;SDS011;62745;51.060;13.786;2024-03-07T07:25:42;28.25;;;12.02;;
74328;SDS011;62745;51.060;13.786;2024-03-07T07:28:09;22.40;;;11.07;;
74328;SDS011;62745;51.060;13.786;2024-03-07T07:30:37;28.65;;;11.82;;
74328;SDS011;62745;51.060;13.786;2024-03-07T07:33:05;27.30;;;11.88;;
74328;SDS011;62745;51.060;13.786;2024-03-07T07:35:32;26.20;;;12.52;;
74328;SDS011;62745;51.060;13.786;2024-03-07T07:38:00;29.38;;;10.88;;
74328;SDS011;62745;51.060;13.786;2024-03-07T07:40:27;25.25;;;11.50;;
74328;SDS011;62745;51.060;13.786;2024-03-07T07:42:54;29.15;;;11.93;;
74328;SDS011;62745;51.060;13.786;2024-03-07T07:45:21;21.38;;;10.80;;
74328;SDS011;62745;51.060;13.786;2024-03-07T07:47:49;22.75;;;10.82;;
74328;SDS011;62745;51.060;13.786;2024-03-07T07:50:18;25.48;;;11.57;;
74328;SDS011;62745;51.060;13.786;2024-03-07T07:55:38;23.92;;;11.30;;
74328;SDS011;62745;51.060;13.786;2024-03-07T07:58:03;18.92;;;9.40;;
74328;SDS011;62745;51.060;13.786;2024-03-07T08:00:30;21.25;;;10.55;;
74328;SDS011;62745;51.060;13.786;2024-03-07T08:02:59;26.55;;;10.43;;
74328;SDS011;62745;51.060;13.786;2024-03-07T08:05:28;27.63;;;10.15;;
74328;SDS011;62745;51.060;13.786;2024-03-07T08:07:57;22.75;;;10.73;;
74328;SDS011;62745;51.060;13.786;2024-03-07T08:10:25;21.98;;;9.85;;
74328;SDS011;62745;51.060;13.786;2024-03-07T08:12:57;21.90;;;9.70;;
74328;SDS011;62745;51.060;13.786;2024-03-07T08:15:27;21.95;;;9.25;;
74328;SDS011;62745;51.060;13.786;2024-03-07T08:17:55;23.42;;;9.55;;
74328;SDS011;62745;51.060;13.786;2024-03-07T08:20:22;19.05;;;8.98;;
74328;SDS011;62745;51.060;13.786;2024-03-07T08:22:54;19.98;;;8.88;;
74328;SDS011;62745;51.060;13.786;2024-03-07T08:25:22;20.23;;;9.20;;
74328;SDS011;62745;51.060;13.786;2024-03-07T08:27:51;18.77;;;8.55;;
74328;SDS011;62745;51.060;13.786;2024-03-07T08:30:18;20.60;;;9.95;;
74328;SDS011;62745;51.060;13.786;2024-03-07T08:32:46;18.67;;;8.70;;
74328;SDS011;62745;51.060;13.786;2024-03-07T08:35:14;18.80;;;9.52;;
74328;SDS011;62745;51.060;13.786;2024-03-07T08:37:43;18.33;;;8.52;;
74328;SDS011;62745;51.060;13.786;2024-03-07T08:40:11;19.92;;;9.02;;
74328;SDS011;62745;51.060;13.786;2024-03-07T08:42:49;18.75;;;9.05;;
74328;SDS011;62745;51.060;13.786;2024-03-07T08:45:17;17.50;;;8.57;;
74328;SDS011;62745;51.060;13.786;2024-03-07T08:47:48;17.58;;;8.25;;
74328;SDS011;62745;51.060;13.786;2024-03-07T08:50:17;17.85;;;9.15;;
74328;SDS011;62745;51.060;13.786;2024-03-07T08:52:44;19.83;;;8.73;;
74328;SDS011;62745;51.060;13.786;2024-03-07T08:55:12;15.30;;;8.30;;
74328;SDS011;62745;51.060;13.786;2024-03-07T08:57:40;18.73;;;8.07;;
74328;SDS011;62745;51.060;13.786;2024-03-07T09:00:08;15.60;;;7.82;;
74328;SDS011;62745;51.060;13.786;2024-03-07T09:02:35;15.75;;;8.10;;
74328;SDS011;62745;51.060;13.786;2024-03-07T09:05:02;16.52;;;7.85;;
74328;SDS011;62745;51.060;13.786;2024-03-07T09:07:29;15.65;;;7.70;;
74328;SDS011;62745;51.060;13.786;2024-03-07T09:09:55;12.85;;;6.78;;
74328;SDS011;62745;51.060;13.786;2024-03-07T09:12:22;13.27;;;6.60;;
74328;SDS011;62745;51.060;13.786;2024-03-07T09:14:51;14.88;;;7.68;;
74328;SDS011;62745;51.060;13.786;2024-03-07T09:17:24;17.90;;;7.07;;
74328;SDS011;62745;51.060;13.786;2024-03-07T09:19:51;11.32;;;6.00;;
74328;SDS011;62745;51.060;13.786;2024-03-07T09:22:17;12.52;;;6.43;;
74328;SDS011;62745;51.060;13.786;2024-03-07T09:24:44;13.10;;;6.35;;
74328;SDS011;62745;51.060;13.786;2024-03-07T09:27:10;13.07;;;7.18;;
74328;SDS011;62745;51.060;13.786;2024-03-07T09:29:38;12.02;;;7.00;;
74328;SDS011;62745;51.060;13.786;2024-03-07T09:32:04;14.50;;;7.72;;
74328;SDS011;62745;51.060;13.786;2024-03-07T09:34:34;17.45;;;7.53;;
74328;SDS011;62745;51.060;13.786;2024-03-07T09:37:03;15.00;;;6.55;;
74328;SDS011;62745;51.060;13.786;2024-03-07T09:39:30;15.32;;;7.72;;
74328;SDS011;62745;51.060;13.786;2024-03-07T09:41:58;14.43;;;7.70;;
74328;SDS011;62745;51.060;13.786;2024-03-07T09:44:25;19.45;;;9.60;;
74328;SDS011;62745;51.060;13.786;2024-03-07T09:46:57;14.90;;;8.18;;
74328;SDS011;62745;51.060;13.786;2024-03-07T09:49:27;15.63;;;8.15;;
74328;SDS011;62745;51.060;13.786;2024-03-07T09:51:55;13.70;;;7.47;;
74328;SDS011;62745;51.060;13.786;2024-03-07T09:54:24;15.77;;;8.43;;
74328;SDS011;62745;51.060;13.786;2024-03-07T09:56:54;17.98;;;9.30;;
74328;SDS011;62745;51.060;13.786;2024-03-07T09:59:25;15.63;;;9.10;;
74328;SDS011;62745;51.060;13.786;2024-03-07T10:01:54;14.35;;;7.40;;
74328;SDS011;62745;51.060;13.786;2024-03-07T10:04:29;16.58;;;8.15;;
74328;SDS011;62745;51.060;13.786;2024-03-07T10:06:58;16.58;;;8.43;;
74328;SDS011;62745;51.060;13.786;2024-03-07T10:09:24;17.00;;;8.18;;
74328;SDS011;62745;51.060;13.786;2024-03-07T10:11:57;15.57;;;8.68;;
74328;SDS011;62745;51.060;13.786;2024-03-07T10:14:25;13.35;;;7.53;;
74328;SDS011;62745;51.060;13.786;2024-03-07T10:16:54;14.88;;;8.23;;
74328;SDS011;62745;51.060;13.786;2024-03-07T10:19:24;15.10;;;7.43;;
74328;SDS011;62745;51.060;13.786;2024-03-07T10:21:51;15.57;;;9.45;;
74328;SDS011;62745;51.060;13.786;2024-03-07T10:24:18;15.20;;;8.57;;
74328;SDS011;62745;51.060;13.786;2024-03-07T10:26:50;18.85;;;9.00;;
74328;SDS011;62745;51.060;13.786;2024-03-07T10:29:17;15.52;;;9.02;;
74328;SDS011;62745;51.060;13.786;2024-03-07T10:31:44;17.20;;;8.93;;
74328;SDS011;62745;51.060;13.786;2024-03-07T10:34:31;18.88;;;9.55;;
74328;SDS011;62745;51.060;13.786;2024-03-07T10:37:00;22.67;;;9.77;;
74328;SDS011;62745;51.060;13.786;2024-03-07T10:39:30;17.38;;;9.30;;
74328;SDS011;62745;51.060;13.786;2024-03-07T10:41:57;17.08;;;9.27;;
74328;SDS011;62745;51.060;13.786;2024-03-07T10:44:32;19.20;;;9.55;;
74328;SDS011;62745;51.060;13.786;2024-03-07T10:47:07;17.63;;;9.50;;
74328;SDS011;62745;51.060;13.786;2024-03-07T10:49:36;20.80;;;10.13;;
74328;SDS011;62745;51.060;13.786;2024-03-07T10:52:12;20.83;;;10.05;;
74328;SDS011;62745;51.060;13.786;2024-03-07T10:54:48;19.23;;;9.65;;
74328;SDS011;62745;51.060;13.786;2024-03-07T11:00:17;18.88;;;9.20;;
74328;SDS011;62745;51.060;13.786;2024-03-07T11:02:56;23.05;;;10.70;;
74328;SDS011;62745;51.060;13.786;2024-03-07T11:05:25;18.67;;;9.68;;
74328;SDS011;62745;51.060;13.786;2024-03-07T11:07:58;19.27;;;10.57;;
74328;SDS011;62745;51.060;13.786;2024-03-07T11:10:30;20.40;;;10.65;;
74328;SDS011;62745;51.060;13.786;2024-03-07T11:12:57;23.27;;;10.63;;
74328;SDS011;62745;51.060;13.786;2024-03-07T11:15:25;19.92;;;9.10;;
74328;SDS011;62745;51.060;13.786;2024-03-07T11:17:54;21.40;;;10.57;;
74328;SDS011;62745;51.060;13.786;2024-03-07T11:20:25;17.25;;;8.90;;
74328;SDS011;62745;51.060;13.786;2024-03-07T11:22:52;18.15;;;9.80;;
74328;SDS011;62745;51.060;13.786;2024-03-07T11:25:21;18.77;;;9.50;;
74328;SDS011;62745;51.060;13.786;2024-03-07T11:27:53;20.77;;;11.13;;
74328;SDS011;62745;51.060;13.786;2024-03-07T11:30:22;18.98;;;9.82;;
74328;SDS011;62745;51.060;13.786;2024-03-07T11:32:50;18.67;;;9.15;;
74328;SDS011;62745;51.060;13.786;2024-03-07T11:35:20;24.17;;;9.93;;
74328;SDS011;62745;51.060;13.786;2024-03-07T11:37:57;16.88;;;8.98;;
74328;SDS011;62745;51.060;13.786;2024-03-07T11:42:52;17.63;;;9.15;;
74328;SDS011;62745;51.060;13.786;2024-03-07T11:45:20;20.85;;;9.52;;
74328;SDS011;62745;51.060;13.786;2024-03-07T11:47:56;21.98;;;9.82;;
74328;SDS011;62745;51.060;13.786;2024-03-07T11:50:27;20.65;;;9.77;;
74328;SDS011;62745;51.060;13.786;2024-03-07T11:52:54;15.98;;;9.18;;
74328;SDS011;62745;51.060;13.786;2024-03-07T11:55:22;14.45;;;8.32;;
74328;SDS011;62745;51.060;13.786;2024-03-07T11:57:49;18.63;;;10.40;;
74328;SDS011;62745;51.060;13.786;2024-03-07T12:00:19;19.33;;;9.35;;
74328;SDS011;62745;51.060;13.786;2024-03-07T12:02:53;20.25;;;10.93;;
74328;SDS011;62745;51.060;13.786;2024-03-07T12:05:20;21.05;;;9.85;;
74328;SDS011;62745;51.060;13.786;2024-03-07T12:07:47;19.83;;;9.43;;
74328;SDS011;62745;51.060;13.786;2024-03-07T12:10:15;18.70;;;9.57;;
74328;SDS011;62745;51.060;13.786;2024-03-07T12:12:42;19.63;;;9.43;;
74328;SDS011;62745;51.060;13.786;2024-03-07T12:15:10;20.80;;;9.68;;
74328;SDS011;62745;51.060;13.786;2024-03-07T12:17:45;17.35;;;8.45;;
74328;SDS011;62745;51.060;13.786;2024-03-07T12:20:16;15.10;;;9.05;;
74328;SDS011;62745;51.060;13.786;2024-03-07T12:22:51;17.92;;;9.38;;
74328;SDS011;62745;51.060;13.786;2024-03-07T12:25:22;19.13;;;9.48;;
74328;SDS011;62745;51.060;13.786;2024-03-07T12:33:13;17.38;;;9.60;;
74328;SDS011;62745;51.060;13.786;2024-03-07T12:35:46;20.63;;;9.52;;
74328;SDS011;62745;51.060;13.786;2024-03-07T12:38:16;19.55;;;9.00;;
74328;SDS011;62745;51.060;13.786;2024-03-07T12:40:43;15.10;;;8.48;;
74328;SDS011;62745;51.060;13.786;2024-03-07T12:43:21;15.95;;;8.77;;
74328;SDS011;62745;51.060;13.786;2024-03-07T12:45:49;16.58;;;7.85;;
74328;SDS011;62745;51.060;13.786;2024-03-07T12:48:17;16.42;;;8.50;;
74328;SDS011;62745;51.060;13.786;2024-03-07T12:50:45;17.00;;;9.50;;
74328;SDS011;62745;51.060;13.786;2024-03-07T12:53:13;19.00;;;8.57;;
74328;SDS011;62745;51.060;13.786;2024-03-07T12:55:40;15.60;;;8.88;;
74328;SDS011;62745;51.060;13.786;2024-03-07T12:58:09;18.92;;;8.65;;
74328;SDS011;62745;51.060;13.786;2024-03-07T13:00:39;14.00;;;8.00;;
74328;SDS011;62745;51.060;13.786;2024-03-07T13:03:08;13.98;;;6.75;;
74328;SDS011;62745;51.060;13.786;2024-03-07T13:05:36;15.43;;;8.05;;
74328;SDS011;62745;51.060;13.786;2024-03-07T13:08:07;15.00;;;8.27;;
74328;SDS011;62745;51.060;13.786;2024-03-07T13:10:43;13.52;;;8.00;;
74328;SDS011;62745;51.060;13.786;2024-03-07T13:13:14;14.68;;;7.32;;
74328;SDS011;62745;51.060;13.786;2024-03-07T13:15:42;14.23;;;7.05;;
74328;SDS011;62745;51.060;13.786;2024-03-07T13:18:13;15.65;;;7.75;;
74328;SDS011;62745;51.060;13.786;2024-03-07T13:20:40;13.75;;;7.82;;
74328;SDS011;62745;51.060;13.786;2024-03-07T13:23:09;16.13;;;7.97;;
74328;SDS011;62745;51.060;13.786;2024-03-07T13:25:36;14.90;;;7.70;;
74328;SDS011;62745;51.060;13.786;2024-03-07T13:28:04;16.05;;;8.38;;
74328;SDS011;62745;51.060;13.786;2024-03-07T13:33:07;12.50;;;7.10;;
74328;SDS011;62745;51.060;13.786;2024-03-07T13:35:34;13.65;;;7.20;;
74328;SDS011;62745;51.060;13.786;2024-03-07T13:38:02;13.70;;;7.32;;
74328;SDS011;62745;51.060;13.786;2024-03-07T13:40:29;14.25;;;7.85;;
74328;SDS011;62745;51.060;13.786;2024-03-07T13:42:57;12.55;;;7.05;;
74328;SDS011;62745;51.060;13.786;2024-03-07T13:45:26;15.45;;;7.90;;
74328;SDS011;62745;51.060;13.786;2024-03-07T13:48:06;17.13;;;8.98;;
74328;SDS011;62745;51.060;13.786;2024-03-07T13:50:34;15.20;;;7.90;;
74328;SDS011;62745;51.060;13.786;2024-03-07T13:53:21;14.38;;;7.40;;
74328;SDS011;62745;51.060;13.786;2024-03-07T14:10:08;13.90;;;6.18;;
74328;SDS011;62745;51.060;13.786;2024-03-07T14:18:58;16.67;;;7.70;;
74328;SDS011;62745;51.060;13.786;2024-03-07T14:27:33;16.65;;;7.60;;
74328;SDS011;62745;51.060;13.786;2024-03-07T14:32:53;14.15;;;7.57;;
74328;SDS011;62745;51.060;13.786;2024-03-07T14:35:34;15.40;;;8.93;;
74328;SDS011;62745;51.060;13.786;2024-03-07T14:38:23;14.52;;;7.25;;
74328;SDS011;62745;51.060;13.786;2024-03-07T14:40:53;16.58;;;8.05;;
74328;SDS011;62745;51.060;13.786;2024-03-07T14:43:21;14.95;;;7.45;;
74328;SDS011;62745;51.060;13.786;2024-03-07T14:45:48;13.45;;;7.25;;
74328;SDS011;62745;51.060;13.786;2024-03-07T14:48:16;14.30;;;7.15;;
74328;SDS011;62745;51.060;13.786;2024-03-07T14:50:45;14.68;;;7.30;;
74328;SDS011;62745;51.060;13.786;2024-03-07T14:53:13;13.77;;;7.45;;
74328;SDS011;62745;51.060;13.786;2024-03-07T14:55:43;13.77;;;8.05;;
74328;SDS011;62745;51.060;13.786;2024-03-07T14:58:10;14.68;;;7.72;;
74328;SDS011;62745;51.060;13.786;2024-03-07T15:00:37;12.68;;;7.38;;
74328;SDS011;62745;51.060;13.786;2024-03-07T15:03:22;17.30;;;7.55;;
74328;SDS011;62745;51.060;13.786;2024-03-07T15:05:50;14.77;;;7.85;;
74328;SDS011;62745;51.060;13.786;2024-03-07T15:08:18;16.73;;;8.35;;